sensor_id;sensor_type;location;lat;lon;timestamp;P1;durP1;ratioP1;P2;durP2;ratioP2
31680;SDS011;18281;51.364;9.566;2023-04-29T00:01:29;7.35;;;6.60;;
31680;SDS011;18281;51.364;9.566;2023-04-29T00:03:55;7.60;;;6.88;;
31680;SDS011;18281;51.364;9.566;2023-04-29T00:06:20;8.07;;;7.28;;
31680;SDS011;18281;51.364;9.566;2023-04-29T00:08:46;7.82;;;7.05;;
31680;SDS011;18281;51.364;9.566;2023-04-29T00:11:11;8.95;;;7.07;;
31680;SDS011;18281;51.364;9.566;2023-04-29T00:13:37;8.88;;;7.32;;
31680;SDS011;18281;51.364;9.566;2023-04-29T00:16:04;8.27;;;7.13;;
31680;SDS011;18281;51.364;9.566;2023-04-29T00:18:31;7.97;;;7.18;;
31680;SDS011;18281;51.364;9.566;2023-04-29T00:20:56;8.32;;;7.45;;
31680;SDS011;18281;51.364;9.566;2023-04-29T00:23:22;9.65;;;8.07;;
31680;SDS011;18281;51.364;9.566;2023-04-29T00:25:47;10.25;;;8.00;;
31680;SDS011;18281;51.364;9.566;2023-04-29T00:28:12;10.10;;;8.65;;
31680;SDS011;18281;51.364;9.566;2023-04-29T00:30:38;8.73;;;7.82;;
31680;SDS011;18281;51.364;9.566;2023-04-29T00:33:03;9.38;;;8.48;;
31680;SDS011;18281;51.364;9.566;2023-04-29T00:35:28;9.25;;;7.82;;
31680;SDS011;18281;51.364;9.566;2023-04-29T00:37:54;11.25;;;8.27;;
31680;SDS011;18281;51.364;9.566;2023-04-29T00:40:19;9.73;;;8.48;;
31680;SDS011;18281;51.364;9.566;2023-04-29T00:42:45;9.32;;;8.38;;
31680;SDS011;18281;51.364;9.566;2023-04-29T00:45:10;10.32;;;8.27;;
31680;SDS011;18281;51.364;9.566;2023-04-29T00:47:36;10.88;;;8.93;;
31680;SDS011;18281;51.364;9.566;2023-04-29T00:50:02;9.55;;;8.55;;
31680;SDS011;18281;51.364;9.566;2023-04-29T00:52:31;9.80;;;8.68;;
31680;SDS011;18281;51.364;9.566;2023-04-29T00:54:57;9.80;;;8.20;;
31680;SDS011;18281;51.364;9.566;2023-04-29T00:57:23;10.35;;;8.90;;
31680;SDS011;18281;51.364;9.566;2023-04-29T00:59:49;10.85;;;9.30;;
31680;SDS011;18281;51.364;9.566;2023-04-29T01:02:15;10.18;;;8.32;;
31680;SDS011;18281;51.364;9.566;2023-04-29T01:04:41;9.88;;;8.88;;
31680;SDS011;18281;51.364;9.566;2023-04-29T01:10:00;10.88;;;9.40;;
31680;SDS011;18281;51.364;9.566;2023-04-29T01:12:49;11.30;;;9.27;;
31680;SDS011;18281;51.364;9.566;2023-04-29T01:18:09;10.20;;;8.45;;
31680;SDS011;18281;51.364;9.566;2023-04-29T01:20:39;10.68;;;8.73;;
31680;SDS011;18281;51.364;9.566;2023-04-29T01:23:06;10.05;;;8.93;;
31680;SDS011;18281;51.364;9.566;2023-04-29T01:25:31;10.82;;;9.02;;
31680;SDS011;18281;51.364;9.566;2023-04-29T01:28:01;9.93;;;8.40;;
31680;SDS011;18281;51.364;9.566;2023-04-29T01:33:29;9.75;;;8.52;;
31680;SDS011;18281;51.364;9.566;2023-04-29T01:45:16;9.82;;;8.82;;
31680;SDS011;18281;51.364;9.566;2023-04-29T01:47:45;9.63;;;8.35;;
31680;SDS011;18281;51.364;9.566;2023-04-29T01:50:11;9.60;;;8.55;;
31680;SDS011;18281;51.364;9.566;2023-04-29T01:52:36;9.73;;;8.35;;
31680;SDS011;18281;51.364;9.566;2023-04-29T01:55:02;12.13;;;8.20;;
31680;SDS011;18281;51.364;9.566;2023-04-29T01:57:28;9.70;;;8.63;;
31680;SDS011;18281;51.364;9.566;2023-04-29T01:59:53;9.23;;;8.20;;
31680;SDS011;18281;51.364;9.566;2023-04-29T02:02:19;10.32;;;8.57;;
31680;SDS011;18281;51.364;9.566;2023-04-29T02:04:47;11.25;;;8.20;;
31680;SDS011;18281;51.364;9.566;2023-04-29T02:07:14;12.32;;;8.35;;
31680;SDS011;18281;51.364;9.566;2023-04-29T02:09:40;11.00;;;8.95;;
31680;SDS011;18281;51.364;9.566;2023-04-29T02:12:05;12.57;;;9.55;;
31680;SDS011;18281;51.364;9.566;2023-04-29T02:14:31;12.95;;;8.73;;
31680;SDS011;18281;51.364;9.566;2023-04-29T02:16:58;9.43;;;8.18;;
31680;SDS011;18281;51.364;9.566;2023-04-29T02:19:24;9.40;;;8.18;;
31680;SDS011;18281;51.364;9.566;2023-04-29T02:21:49;9.50;;;8.10;;
31680;SDS011;18281;51.364;9.566;2023-04-29T02:24:14;9.60;;;8.48;;
31680;SDS011;18281;51.364;9.566;2023-04-29T02:26:40;9.50;;;8.02;;
31680;SDS011;18281;51.364;9.566;2023-04-29T02:29:05;8.68;;;7.78;;
31680;SDS011;18281;51.364;9.566;2023-04-29T02:31:30;9.77;;;7.85;;
31680;SDS011;18281;51.364;9.566;2023-04-29T02:33:56;9.93;;;8.52;;
31680;SDS011;18281;51.364;9.566;2023-04-29T02:36:22;9.23;;;7.75;;
31680;SDS011;18281;51.364;9.566;2023-04-29T02:38:48;9.60;;;7.55;;
31680;SDS011;18281;51.364;9.566;2023-04-29T02:41:17;9.00;;;7.70;;
31680;SDS011;18281;51.364;9.566;2023-04-29T02:43:43;8.80;;;7.90;;
31680;SDS011;18281;51.364;9.566;2023-04-29T02:46:08;11.90;;;7.50;;
31680;SDS011;18281;51.364;9.566;2023-04-29T02:48:34;8.63;;;7.10;;
31680;SDS011;18281;51.364;9.566;2023-04-29T02:50:59;8.18;;;6.93;;
31680;SDS011;18281;51.364;9.566;2023-04-29T02:53:24;9.80;;;8.18;;
31680;SDS011;18281;51.364;9.566;2023-04-29T02:55:50;8.50;;;6.90;;
31680;SDS011;18281;51.364;9.566;2023-04-29T02:58:15;8.93;;;7.65;;
31680;SDS011;18281;51.364;9.566;2023-04-29T03:00:40;8.85;;;6.93;;
31680;SDS011;18281;51.364;9.566;2023-04-29T03:03:06;7.68;;;6.75;;
31680;SDS011;18281;51.364;9.566;2023-04-29T03:05:31;8.95;;;6.82;;
31680;SDS011;18281;51.364;9.566;2023-04-29T03:07:57;8.85;;;7.55;;
31680;SDS011;18281;51.364;9.566;2023-04-29T03:10:22;7.95;;;7.15;;
31680;SDS011;18281;51.364;9.566;2023-04-29T03:12:47;9.00;;;7.05;;
31680;SDS011;18281;51.364;9.566;2023-04-29T03:15:13;8.27;;;6.75;;
31680;SDS011;18281;51.364;9.566;2023-04-29T03:17:39;8.20;;;6.60;;
31680;SDS011;18281;51.364;9.566;2023-04-29T03:20:05;8.65;;;7.57;;
31680;SDS011;18281;51.364;9.566;2023-04-29T03:22:31;8.07;;;6.85;;
31680;SDS011;18281;51.364;9.566;2023-04-29T03:24:57;9.88;;;6.90;;
31680;SDS011;18281;51.364;9.566;2023-04-29T03:27:22;9.82;;;7.55;;
31680;SDS011;18281;51.364;9.566;2023-04-29T03:29:47;11.68;;;7.85;;
31680;SDS011;18281;51.364;9.566;2023-04-29T03:32:13;8.93;;;7.90;;
31680;SDS011;18281;51.364;9.566;2023-04-29T03:34:38;9.55;;;7.78;;
31680;SDS011;18281;51.364;9.566;2023-04-29T03:37:04;10.40;;;8.55;;
31680;SDS011;18281;51.364;9.566;2023-04-29T03:39:30;12.75;;;8.95;;
31680;SDS011;18281;51.364;9.566;2023-04-29T03:41:56;7.75;;;6.95;;
31680;SDS011;18281;51.364;9.566;2023-04-29T03:44:23;10.48;;;8.60;;
31680;SDS011;18281;51.364;9.566;2023-04-29T03:46:48;10.50;;;8.65;;
31680;SDS011;18281;51.364;9.566;2023-04-29T03:49:14;10.40;;;8.20;;
31680;SDS011;18281;51.364;9.566;2023-04-29T03:51:40;10.32;;;8.30;;
31680;SDS011;18281;51.364;9.566;2023-04-29T03:54:05;8.77;;;7.43;;
31680;SDS011;18281;51.364;9.566;2023-04-29T03:56:31;9.32;;;7.82;;
31680;SDS011;18281;51.364;9.566;2023-04-29T03:58:56;10.65;;;8.52;;
31680;SDS011;18281;51.364;9.566;2023-04-29T04:01:22;10.18;;;8.05;;
31680;SDS011;18281;51.364;9.566;2023-04-29T04:03:47;8.45;;;7.53;;
31680;SDS011;18281;51.364;9.566;2023-04-29T04:06:12;9.55;;;7.32;;
31680;SDS011;18281;51.364;9.566;2023-04-29T04:08:38;12.10;;;9.07;;
31680;SDS011;18281;51.364;9.566;2023-04-29T04:11:05;10.90;;;9.20;;
31680;SDS011;18281;51.364;9.566;2023-04-29T04:13:30;12.15;;;9.10;;
31680;SDS011;18281;51.364;9.566;2023-04-29T04:15:56;10.63;;;8.10;;
31680;SDS011;18281;51.364;9.566;2023-04-29T04:18:22;10.48;;;8.00;;
31680;SDS011;18281;51.364;9.566;2023-04-29T04:20:47;10.68;;;8.25;;
31680;SDS011;18281;51.364;9.566;2023-04-29T04:23:12;10.57;;;7.78;;
31680;SDS011;18281;51.364;9.566;2023-04-29T04:25:43;11.05;;;7.65;;
31680;SDS011;18281;51.364;9.566;2023-04-29T04:28:10;9.98;;;7.75;;
31680;SDS011;18281;51.364;9.566;2023-04-29T04:30:35;13.18;;;8.93;;
31680;SDS011;18281;51.364;9.566;2023-04-29T04:33:00;10.98;;;8.15;;
31680;SDS011;18281;51.364;9.566;2023-04-29T04:35:26;11.85;;;9.10;;
31680;SDS011;18281;51.364;9.566;2023-04-29T04:37:52;13.50;;;8.90;;
31680;SDS011;18281;51.364;9.566;2023-04-29T04:40:17;9.48;;;7.80;;
31680;SDS011;18281;51.364;9.566;2023-04-29T04:42:42;12.88;;;9.30;;
31680;SDS011;18281;51.364;9.566;2023-04-29T04:45:08;13.05;;;8.75;;
31680;SDS011;18281;51.364;9.566;2023-04-29T04:47:35;11.98;;;8.55;;
31680;SDS011;18281;51.364;9.566;2023-04-29T04:50:00;12.13;;;9.15;;
31680;SDS011;18281;51.364;9.566;2023-04-29T04:52:27;15.07;;;9.73;;
31680;SDS011;18281;51.364;9.566;2023-04-29T04:54:53;14.32;;;8.50;;
31680;SDS011;18281;51.364;9.566;2023-04-29T04:57:18;12.35;;;8.90;;
31680;SDS011;18281;51.364;9.566;2023-04-29T04:59:43;11.98;;;8.80;;
31680;SDS011;18281;51.364;9.566;2023-04-29T05:02:09;12.40;;;8.82;;
31680;SDS011;18281;51.364;9.566;2023-04-29T05:04:34;12.35;;;8.55;;
31680;SDS011;18281;51.364;9.566;2023-04-29T05:06:59;12.10;;;8.23;;
31680;SDS011;18281;51.364;9.566;2023-04-29T05:09:25;13.55;;;8.82;;
31680;SDS011;18281;51.364;9.566;2023-04-29T05:11:50;12.60;;;8.50;;
31680;SDS011;18281;51.364;9.566;2023-04-29T05:14:16;12.05;;;9.00;;
31680;SDS011;18281;51.364;9.566;2023-04-29T05:16:42;11.13;;;7.93;;
31680;SDS011;18281;51.364;9.566;2023-04-29T05:19:08;13.07;;;8.57;;
31680;SDS011;18281;51.364;9.566;2023-04-29T05:21:34;10.77;;;8.20;;
31680;SDS011;18281;51.364;9.566;2023-04-29T05:23:59;13.88;;;9.07;;
31680;SDS011;18281;51.364;9.566;2023-04-29T05:26:25;12.60;;;8.60;;
31680;SDS011;18281;51.364;9.566;2023-04-29T05:28:50;12.27;;;8.68;;
31680;SDS011;18281;51.364;9.566;2023-04-29T05:31:15;11.90;;;7.35;;
31680;SDS011;18281;51.364;9.566;2023-04-29T05:33:41;10.82;;;8.13;;
31680;SDS011;18281;51.364;9.566;2023-04-29T05:36:06;11.82;;;8.30;;
31680;SDS011;18281;51.364;9.566;2023-04-29T05:38:32;13.00;;;8.35;;
31680;SDS011;18281;51.364;9.566;2023-04-29T05:40:57;10.48;;;7.97;;
31680;SDS011;18281;51.364;9.566;2023-04-29T05:43:23;12.70;;;8.57;;
31680;SDS011;18281;51.364;9.566;2023-04-29T05:45:49;11.15;;;8.02;;
31680;SDS011;18281;51.364;9.566;2023-04-29T05:48:14;11.85;;;8.50;;
31680;SDS011;18281;51.364;9.566;2023-04-29T05:50:40;11.15;;;8.10;;
31680;SDS011;18281;51.364;9.566;2023-04-29T05:53:05;10.82;;;7.43;;
31680;SDS011;18281;51.364;9.566;2023-04-29T05:55:31;11.68;;;7.50;;
31680;SDS011;18281;51.364;9.566;2023-04-29T05:57:56;11.43;;;7.93;;
31680;SDS011;18281;51.364;9.566;2023-04-29T06:00:22;13.80;;;9.05;;
31680;SDS011;18281;51.364;9.566;2023-04-29T06:02:47;13.18;;;9.10;;
31680;SDS011;18281;51.364;9.566;2023-04-29T06:05:13;14.45;;;9.25;;
31680;SDS011;18281;51.364;9.566;2023-04-29T06:07:39;15.88;;;10.05;;
31680;SDS011;18281;51.364;9.566;2023-04-29T06:10:05;14.70;;;9.18;;
31680;SDS011;18281;51.364;9.566;2023-04-29T06:12:31;13.25;;;9.20;;
31680;SDS011;18281;51.364;9.566;2023-04-29T06:14:56;14.75;;;9.45;;
31680;SDS011;18281;51.364;9.566;2023-04-29T06:17:22;11.07;;;7.40;;
31680;SDS011;18281;51.364;9.566;2023-04-29T06:19:47;8.20;;;5.75;;
31680;SDS011;18281;51.364;9.566;2023-04-29T06:22:12;7.50;;;5.57;;
31680;SDS011;18281;51.364;9.566;2023-04-29T06:24:38;11.57;;;5.15;;
31680;SDS011;18281;51.364;9.566;2023-04-29T06:27:03;9.63;;;5.85;;
31680;SDS011;18281;51.364;9.566;2023-04-29T06:29:29;9.40;;;6.60;;
31680;SDS011;18281;51.364;9.566;2023-04-29T06:31:54;10.93;;;6.53;;
31680;SDS011;18281;51.364;9.566;2023-04-29T06:34:20;8.80;;;6.45;;
31680;SDS011;18281;51.364;9.566;2023-04-29T06:36:45;9.63;;;5.78;;
31680;SDS011;18281;51.364;9.566;2023-04-29T06:39:11;9.82;;;6.80;;
31680;SDS011;18281;51.364;9.566;2023-04-29T06:41:36;11.20;;;6.20;;
31680;SDS011;18281;51.364;9.566;2023-04-29T06:44:01;7.68;;;5.72;;
31680;SDS011;18281;51.364;9.566;2023-04-29T06:46:27;8.90;;;6.18;;
31680;SDS011;18281;51.364;9.566;2023-04-29T06:48:53;9.63;;;6.25;;
31680;SDS011;18281;51.364;9.566;2023-04-29T06:51:19;8.93;;;5.30;;
31680;SDS011;18281;51.364;9.566;2023-04-29T06:53:44;7.97;;;5.50;;
31680;SDS011;18281;51.364;9.566;2023-04-29T06:56:10;7.93;;;5.47;;
31680;SDS011;18281;51.364;9.566;2023-04-29T06:58:36;6.47;;;4.93;;
31680;SDS011;18281;51.364;9.566;2023-04-29T07:01:01;7.85;;;5.38;;
31680;SDS011;18281;51.364;9.566;2023-04-29T07:03:28;8.07;;;4.95;;
31680;SDS011;18281;51.364;9.566;2023-04-29T07:05:53;10.00;;;5.78;;
31680;SDS011;18281;51.364;9.566;2023-04-29T07:08:18;8.75;;;5.03;;
31680;SDS011;18281;51.364;9.566;2023-04-29T07:10:48;6.43;;;5.07;;
31680;SDS011;18281;51.364;9.566;2023-04-29T07:13:18;7.63;;;4.82;;
31680;SDS011;18281;51.364;9.566;2023-04-29T07:15:43;6.38;;;4.70;;
31680;SDS011;18281;51.364;9.566;2023-04-29T07:18:09;7.15;;;4.05;;
31680;SDS011;18281;51.364;9.566;2023-04-29T07:20:37;7.95;;;5.45;;
31680;SDS011;18281;51.364;9.566;2023-04-29T07:23:03;7.50;;;5.78;;
31680;SDS011;18281;51.364;9.566;2023-04-29T07:25:28;6.57;;;4.97;;
31680;SDS011;18281;51.364;9.566;2023-04-29T07:27:54;6.85;;;4.80;;
31680;SDS011;18281;51.364;9.566;2023-04-29T07:30:20;5.32;;;4.45;;
31680;SDS011;18281;51.364;9.566;2023-04-29T07:32:45;8.77;;;5.32;;
31680;SDS011;18281;51.364;9.566;2023-04-29T07:35:11;7.35;;;5.00;;
31680;SDS011;18281;51.364;9.566;2023-04-29T07:37:36;10.52;;;5.38;;
31680;SDS011;18281;51.364;9.566;2023-04-29T07:40:02;9.43;;;4.80;;
31680;SDS011;18281;51.364;9.566;2023-04-29T07:42:27;5.32;;;3.95;;
31680;SDS011;18281;51.364;9.566;2023-04-29T07:44:52;7.93;;;4.28;;
31680;SDS011;18281;51.364;9.566;2023-04-29T07:47:18;6.65;;;4.40;;
31680;SDS011;18281;51.364;9.566;2023-04-29T07:49:43;8.00;;;5.90;;
31680;SDS011;18281;51.364;9.566;2023-04-29T07:52:08;10.23;;;5.85;;
31680;SDS011;18281;51.364;9.566;2023-04-29T07:54:37;9.60;;;5.82;;
31680;SDS011;18281;51.364;9.566;2023-04-29T07:57:03;7.30;;;5.60;;
31680;SDS011;18281;51.364;9.566;2023-04-29T07:59:29;6.07;;;4.75;;
31680;SDS011;18281;51.364;9.566;2023-04-29T08:01:56;5.05;;;4.10;;
31680;SDS011;18281;51.364;9.566;2023-04-29T08:04:22;5.95;;;4.68;;
31680;SDS011;18281;51.364;9.566;2023-04-29T08:06:48;7.45;;;4.65;;
31680;SDS011;18281;51.364;9.566;2023-04-29T08:09:14;5.10;;;4.18;;
31680;SDS011;18281;51.364;9.566;2023-04-29T08:11:39;5.18;;;4.05;;
31680;SDS011;18281;51.364;9.566;2023-04-29T08:14:05;6.28;;;5.13;;
31680;SDS011;18281;51.364;9.566;2023-04-29T08:16:30;4.68;;;4.18;;
31680;SDS011;18281;51.364;9.566;2023-04-29T08:18:56;6.45;;;4.53;;
31680;SDS011;18281;51.364;9.566;2023-04-29T08:21:21;4.80;;;4.30;;
31680;SDS011;18281;51.364;9.566;2023-04-29T08:23:47;5.47;;;3.85;;
31680;SDS011;18281;51.364;9.566;2023-04-29T08:26:12;6.05;;;4.70;;
31680;SDS011;18281;51.364;9.566;2023-04-29T08:28:38;6.35;;;4.47;;
31680;SDS011;18281;51.364;9.566;2023-04-29T08:31:04;5.47;;;4.20;;
31680;SDS011;18281;51.364;9.566;2023-04-29T08:33:32;6.25;;;4.68;;
31680;SDS011;18281;51.364;9.566;2023-04-29T08:35:58;6.47;;;4.70;;
31680;SDS011;18281;51.364;9.566;2023-04-29T08:38:24;3.42;;;3.10;;
31680;SDS011;18281;51.364;9.566;2023-04-29T08:40:50;8.77;;;3.90;;
31680;SDS011;18281;51.364;9.566;2023-04-29T08:43:15;4.50;;;3.55;;
31680;SDS011;18281;51.364;9.566;2023-04-29T08:45:42;3.88;;;3.00;;
31680;SDS011;18281;51.364;9.566;2023-04-29T08:48:08;3.55;;;2.90;;
31680;SDS011;18281;51.364;9.566;2023-04-29T08:50:37;6.30;;;4.10;;
31680;SDS011;18281;51.364;9.566;2023-04-29T08:53:08;3.45;;;3.13;;
31680;SDS011;18281;51.364;9.566;2023-04-29T08:55:34;5.50;;;4.35;;
31680;SDS011;18281;51.364;9.566;2023-04-29T08:58:04;6.82;;;4.95;;
31680;SDS011;18281;51.364;9.566;2023-04-29T09:00:29;5.43;;;4.72;;
31680;SDS011;18281;51.364;9.566;2023-04-29T09:02:56;6.93;;;5.68;;
31680;SDS011;18281;51.364;9.566;2023-04-29T09:05:23;7.00;;;5.75;;
31680;SDS011;18281;51.364;9.566;2023-04-29T09:07:50;7.45;;;6.13;;
31680;SDS011;18281;51.364;9.566;2023-04-29T09:10:17;6.05;;;4.95;;
31680;SDS011;18281;51.364;9.566;2023-04-29T09:12:43;8.95;;;6.75;;
31680;SDS011;18281;51.364;9.566;2023-04-29T09:15:08;9.13;;;6.82;;
31680;SDS011;18281;51.364;9.566;2023-04-29T09:17:47;10.10;;;6.75;;
31680;SDS011;18281;51.364;9.566;2023-04-29T09:25:16;15.82;;;9.02;;
31680;SDS011;18281;51.364;9.566;2023-04-29T09:27:42;8.32;;;6.88;;
31680;SDS011;18281;51.364;9.566;2023-04-29T09:30:08;11.07;;;7.82;;
31680;SDS011;18281;51.364;9.566;2023-04-29T09:32:34;9.57;;;7.43;;
31680;SDS011;18281;51.364;9.566;2023-04-29T09:37:52;10.13;;;8.05;;
31680;SDS011;18281;51.364;9.566;2023-04-29T09:40:30;12.90;;;9.40;;
31680;SDS011;18281;51.364;9.566;2023-04-29T09:42:59;14.05;;;9.40;;
31680;SDS011;18281;51.364;9.566;2023-04-29T09:45:32;13.27;;;9.48;;
31680;SDS011;18281;51.364;9.566;2023-04-29T09:48:03;13.55;;;9.55;;
31680;SDS011;18281;51.364;9.566;2023-04-29T09:50:33;12.95;;;9.93;;
31680;SDS011;18281;51.364;9.566;2023-04-29T09:53:02;13.65;;;9.25;;
31680;SDS011;18281;51.364;9.566;2023-04-29T09:55:29;13.50;;;10.15;;
31680;SDS011;18281;51.364;9.566;2023-04-29T09:57:55;13.45;;;10.07;;
31680;SDS011;18281;51.364;9.566;2023-04-29T10:00:21;14.23;;;9.65;;
31680;SDS011;18281;51.364;9.566;2023-04-29T10:02:47;14.25;;;10.77;;
31680;SDS011;18281;51.364;9.566;2023-04-29T10:05:14;14.57;;;10.70;;
31680;SDS011;18281;51.364;9.566;2023-04-29T10:07:40;12.20;;;8.35;;
31680;SDS011;18281;51.364;9.566;2023-04-29T10:10:06;15.32;;;8.93;;
31680;SDS011;18281;51.364;9.566;2023-04-29T10:12:35;12.38;;;9.80;;
31680;SDS011;18281;51.364;9.566;2023-04-29T10:15:22;12.50;;;9.93;;
31680;SDS011;18281;51.364;9.566;2023-04-29T10:20:44;11.30;;;8.88;;
31680;SDS011;18281;51.364;9.566;2023-04-29T10:23:11;9.85;;;7.82;;
31680;SDS011;18281;51.364;9.566;2023-04-29T10:25:38;9.63;;;7.53;;
31680;SDS011;18281;51.364;9.566;2023-04-29T10:28:07;10.95;;;8.55;;
31680;SDS011;18281;51.364;9.566;2023-04-29T10:30:37;12.50;;;9.45;;
31680;SDS011;18281;51.364;9.566;2023-04-29T10:33:03;17.27;;;10.90;;
31680;SDS011;18281;51.364;9.566;2023-04-29T10:35:30;14.82;;;9.48;;
31680;SDS011;18281;51.364;9.566;2023-04-29T10:37:56;10.75;;;8.63;;
31680;SDS011;18281;51.364;9.566;2023-04-29T10:40:44;9.48;;;7.68;;
31680;SDS011;18281;51.364;9.566;2023-04-29T10:43:11;10.20;;;8.23;;
31680;SDS011;18281;51.364;9.566;2023-04-29T10:45:37;13.07;;;9.65;;
31680;SDS011;18281;51.364;9.566;2023-04-29T10:50:38;11.18;;;8.15;;
31680;SDS011;18281;51.364;9.566;2023-04-29T10:53:06;9.90;;;6.82;;
31680;SDS011;18281;51.364;9.566;2023-04-29T10:55:34;16.08;;;10.30;;
31680;SDS011;18281;51.364;9.566;2023-04-29T10:58:02;15.82;;;10.45;;
31680;SDS011;18281;51.364;9.566;2023-04-29T11:00:29;13.88;;;9.55;;
31680;SDS011;18281;51.364;9.566;2023-04-29T11:02:57;14.65;;;10.18;;
31680;SDS011;18281;51.364;9.566;2023-04-29T11:05:30;13.20;;;10.45;;
31680;SDS011;18281;51.364;9.566;2023-04-29T11:08:18;11.40;;;8.80;;
31680;SDS011;18281;51.364;9.566;2023-04-29T11:10:51;9.20;;;7.10;;
31680;SDS011;18281;51.364;9.566;2023-04-29T11:13:24;9.10;;;6.82;;
31680;SDS011;18281;51.364;9.566;2023-04-29T11:15:52;13.52;;;9.82;;
31680;SDS011;18281;51.364;9.566;2023-04-29T11:18:31;11.07;;;8.40;;
31680;SDS011;18281;51.364;9.566;2023-04-29T11:23:30;8.98;;;7.40;;
31680;SDS011;18281;51.364;9.566;2023-04-29T11:25:58;11.95;;;8.93;;
31680;SDS011;18281;51.364;9.566;2023-04-29T11:28:24;10.63;;;8.93;;
31680;SDS011;18281;51.364;9.566;2023-04-29T11:30:51;15.02;;;10.10;;
31680;SDS011;18281;51.364;9.566;2023-04-29T11:33:18;10.75;;;8.75;;
31680;SDS011;18281;51.364;9.566;2023-04-29T11:35:44;8.60;;;7.47;;
31680;SDS011;18281;51.364;9.566;2023-04-29T11:38:11;9.80;;;7.20;;
31680;SDS011;18281;51.364;9.566;2023-04-29T11:40:40;12.27;;;8.50;;
31680;SDS011;18281;51.364;9.566;2023-04-29T11:43:18;8.15;;;6.60;;
31680;SDS011;18281;51.364;9.566;2023-04-29T11:45:47;7.80;;;6.30;;
31680;SDS011;18281;51.364;9.566;2023-04-29T11:48:21;8.98;;;7.70;;
31680;SDS011;18281;51.364;9.566;2023-04-29T11:50:48;10.07;;;7.78;;
31680;SDS011;18281;51.364;9.566;2023-04-29T11:53:18;8.20;;;7.20;;
31680;SDS011;18281;51.364;9.566;2023-04-29T11:55:44;9.63;;;8.30;;
31680;SDS011;18281;51.364;9.566;2023-04-29T11:58:10;8.70;;;7.15;;
31680;SDS011;18281;51.364;9.566;2023-04-29T12:00:35;7.88;;;6.28;;
31680;SDS011;18281;51.364;9.566;2023-04-29T12:03:05;7.35;;;6.00;;
31680;SDS011;18281;51.364;9.566;2023-04-29T12:05:32;5.80;;;5.28;;
31680;SDS011;18281;51.364;9.566;2023-04-29T12:07:58;7.43;;;6.20;;
31680;SDS011;18281;51.364;9.566;2023-04-29T12:10:23;7.88;;;6.50;;
31680;SDS011;18281;51.364;9.566;2023-04-29T12:12:48;5.72;;;5.13;;
31680;SDS011;18281;51.364;9.566;2023-04-29T12:15:14;6.07;;;5.20;;
31680;SDS011;18281;51.364;9.566;2023-04-29T12:17:40;7.28;;;5.57;;
31680;SDS011;18281;51.364;9.566;2023-04-29T12:20:06;6.70;;;5.78;;
31680;SDS011;18281;51.364;9.566;2023-04-29T12:22:35;6.70;;;5.70;;
31680;SDS011;18281;51.364;9.566;2023-04-29T12:25:04;5.90;;;5.38;;
31680;SDS011;18281;51.364;9.566;2023-04-29T12:27:31;5.38;;;4.88;;
31680;SDS011;18281;51.364;9.566;2023-04-29T12:29:56;6.38;;;5.15;;
31680;SDS011;18281;51.364;9.566;2023-04-29T12:32:23;5.85;;;4.97;;
31680;SDS011;18281;51.364;9.566;2023-04-29T12:34:51;5.75;;;5.05;;
31680;SDS011;18281;51.364;9.566;2023-04-29T12:37:17;7.72;;;5.32;;
31680;SDS011;18281;51.364;9.566;2023-04-29T12:39:42;12.65;;;8.65;;
31680;SDS011;18281;51.364;9.566;2023-04-29T12:42:13;6.97;;;6.20;;
31680;SDS011;18281;51.364;9.566;2023-04-29T12:44:45;7.60;;;6.50;;
31680;SDS011;18281;51.364;9.566;2023-04-29T12:47:11;10.32;;;6.95;;
31680;SDS011;18281;51.364;9.566;2023-04-29T12:49:44;7.88;;;6.53;;
31680;SDS011;18281;51.364;9.566;2023-04-29T12:52:10;7.95;;;6.65;;
31680;SDS011;18281;51.364;9.566;2023-04-29T12:54:36;8.95;;;6.82;;
31680;SDS011;18281;51.364;9.566;2023-04-29T12:57:04;7.97;;;5.93;;
31680;SDS011;18281;51.364;9.566;2023-04-29T12:59:30;9.82;;;6.07;;
31680;SDS011;18281;51.364;9.566;2023-04-29T13:01:55;5.70;;;5.10;;
31680;SDS011;18281;51.364;9.566;2023-04-29T13:04:21;7.30;;;6.53;;
31680;SDS011;18281;51.364;9.566;2023-04-29T13:06:46;7.35;;;5.50;;
31680;SDS011;18281;51.364;9.566;2023-04-29T13:09:11;5.97;;;4.95;;
31680;SDS011;18281;51.364;9.566;2023-04-29T13:11:37;4.90;;;4.28;;
31680;SDS011;18281;51.364;9.566;2023-04-29T13:14:03;6.63;;;5.22;;
31680;SDS011;18281;51.364;9.566;2023-04-29T13:16:32;6.05;;;4.68;;
31680;SDS011;18281;51.364;9.566;2023-04-29T13:18:58;6.15;;;5.00;;
31680;SDS011;18281;51.364;9.566;2023-04-29T13:21:23;6.38;;;5.13;;
31680;SDS011;18281;51.364;9.566;2023-04-29T13:23:49;4.95;;;4.47;;
31680;SDS011;18281;51.364;9.566;2023-04-29T13:26:14;5.57;;;5.07;;
31680;SDS011;18281;51.364;9.566;2023-04-29T13:28:39;5.25;;;4.75;;
31680;SDS011;18281;51.364;9.566;2023-04-29T13:31:05;6.40;;;4.80;;
31680;SDS011;18281;51.364;9.566;2023-04-29T13:33:31;4.15;;;3.70;;
31680;SDS011;18281;51.364;9.566;2023-04-29T13:35:56;6.47;;;4.95;;
31680;SDS011;18281;51.364;9.566;2023-04-29T13:38:21;5.63;;;4.60;;
31680;SDS011;18281;51.364;9.566;2023-04-29T13:40:46;5.28;;;4.20;;
31680;SDS011;18281;51.364;9.566;2023-04-29T13:43:12;4.53;;;4.13;;
31680;SDS011;18281;51.364;9.566;2023-04-29T13:45:37;5.47;;;4.50;;
31680;SDS011;18281;51.364;9.566;2023-04-29T13:48:03;6.38;;;4.45;;
31680;SDS011;18281;51.364;9.566;2023-04-29T13:50:28;5.07;;;3.70;;
31680;SDS011;18281;51.364;9.566;2023-04-29T13:52:54;4.60;;;4.03;;
31680;SDS011;18281;51.364;9.566;2023-04-29T13:55:20;6.53;;;4.25;;
31680;SDS011;18281;51.364;9.566;2023-04-29T13:57:45;6.40;;;3.78;;
31680;SDS011;18281;51.364;9.566;2023-04-29T14:00:11;3.72;;;3.15;;
31680;SDS011;18281;51.364;9.566;2023-04-29T14:02:37;6.05;;;3.72;;
31680;SDS011;18281;51.364;9.566;2023-04-29T14:05:03;3.90;;;3.60;;
31680;SDS011;18281;51.364;9.566;2023-04-29T14:07:28;4.35;;;3.53;;
31680;SDS011;18281;51.364;9.566;2023-04-29T14:09:53;3.75;;;3.42;;
31680;SDS011;18281;51.364;9.566;2023-04-29T14:12:19;5.60;;;3.83;;
31680;SDS011;18281;51.364;9.566;2023-04-29T14:14:44;7.63;;;4.15;;
31680;SDS011;18281;51.364;9.566;2023-04-29T14:17:09;4.70;;;3.95;;
31680;SDS011;18281;51.364;9.566;2023-04-29T14:19:35;6.03;;;3.95;;
31680;SDS011;18281;51.364;9.566;2023-04-29T14:22:00;5.18;;;3.97;;
31680;SDS011;18281;51.364;9.566;2023-04-29T14:24:26;5.28;;;4.60;;
31680;SDS011;18281;51.364;9.566;2023-04-29T14:26:51;6.32;;;4.35;;
31680;SDS011;18281;51.364;9.566;2023-04-29T14:29:17;6.15;;;4.57;;
31680;SDS011;18281;51.364;9.566;2023-04-29T14:31:43;10.80;;;5.18;;
31680;SDS011;18281;51.364;9.566;2023-04-29T14:34:08;6.68;;;5.03;;
31680;SDS011;18281;51.364;9.566;2023-04-29T14:36:34;6.97;;;4.75;;
31680;SDS011;18281;51.364;9.566;2023-04-29T14:38:59;4.30;;;3.38;;
31680;SDS011;18281;51.364;9.566;2023-04-29T14:41:25;5.30;;;4.80;;
31680;SDS011;18281;51.364;9.566;2023-04-29T14:43:51;9.00;;;5.85;;
31680;SDS011;18281;51.364;9.566;2023-04-29T14:46:17;7.10;;;4.22;;
31680;SDS011;18281;51.364;9.566;2023-04-29T14:48:42;6.57;;;4.63;;
31680;SDS011;18281;51.364;9.566;2023-04-29T14:51:07;6.80;;;5.28;;
31680;SDS011;18281;51.364;9.566;2023-04-29T14:53:33;6.53;;;5.85;;
31680;SDS011;18281;51.364;9.566;2023-04-29T14:55:59;7.10;;;6.15;;
31680;SDS011;18281;51.364;9.566;2023-04-29T14:58:24;8.10;;;6.05;;
31680;SDS011;18281;51.364;9.566;2023-04-29T15:00:50;6.75;;;5.18;;
31680;SDS011;18281;51.364;9.566;2023-04-29T15:03:16;7.57;;;5.65;;
31680;SDS011;18281;51.364;9.566;2023-04-29T15:05:42;8.02;;;5.65;;
31680;SDS011;18281;51.364;9.566;2023-04-29T15:08:08;6.65;;;5.40;;
31680;SDS011;18281;51.364;9.566;2023-04-29T15:10:33;7.75;;;6.05;;
31680;SDS011;18281;51.364;9.566;2023-04-29T15:12:58;7.40;;;6.00;;